createdAt,value
2019-05-01T00:00:17.812Z,5.15
2019-05-01T00:03:14.764Z,5.90
2019-05-01T00:08:21.815Z,6.25
2019-05-01T00:10:53.961Z,5.87
2019-05-01T00:13:26.394Z,5.97
2019-05-01T00:15:59.337Z,5.47
2019-05-01T00:18:32.014Z,5.87
2019-05-01T00:21:04.514Z,6.75
2019-05-01T00:23:37.329Z,5.53
2019-05-01T00:26:10.104Z,6.03
2019-05-01T00:28:42.870Z,7.45
2019-05-01T00:31:15.494Z,6.03
2019-05-01T00:33:47.868Z,6.10
2019-05-01T00:36:20.332Z,6.15
2019-05-01T00:38:52.816Z,6.65
2019-05-01T00:41:24.880Z,6.42
2019-05-01T00:43:57.396Z,5.78
2019-05-01T00:46:29.922Z,6.83
2019-05-01T00:49:02.426Z,6.62
2019-05-01T00:51:34.892Z,6.20
2019-05-01T00:54:06.907Z,5.92
2019-05-01T00:56:52.815Z,5.97
2019-05-01T00:59:43.530Z,6.20
2019-05-01T01:02:38.436Z,5.87
2019-05-01T01:05:10.825Z,5.55
2019-05-01T01:07:42.988Z,5.78
2019-05-01T01:10:15.389Z,5.30
2019-05-01T01:12:47.853Z,5.60
2019-05-01T01:15:20.002Z,5.83
2019-05-01T01:17:52.103Z,5.70
2019-05-01T01:20:24.283Z,6.03
2019-05-01T01:22:56.848Z,6.05
2019-05-01T01:25:29.011Z,5.28
2019-05-01T01:28:01.317Z,5.87
2019-05-01T01:30:33.830Z,5.67
2019-05-01T01:33:05.852Z,5.97
2019-05-01T01:35:38.323Z,5.97
2019-05-01T01:38:10.859Z,6.33
2019-05-01T01:40:42.828Z,6.22
2019-05-01T01:43:36.425Z,7.30
2019-05-01T01:46:10.349Z,5.80
2019-05-01T01:48:43.333Z,6.28
2019-05-01T01:51:15.899Z,6.87
2019-05-01T01:53:48.330Z,6.80
2019-05-01T01:56:20.585Z,5.70
2019-05-01T01:58:52.883Z,5.75
2019-05-01T02:01:42.597Z,5.83
2019-05-01T02:04:24.833Z,5.67
2019-05-01T02:06:57.060Z,5.33
2019-05-01T02:09:29.364Z,5.90
2019-05-01T02:12:01.906Z,6.35
2019-05-01T02:14:34.525Z,6.42
2019-05-01T02:17:06.902Z,5.87
2019-05-01T02:19:39.029Z,5.80
2019-05-01T02:22:11.769Z,5.83
2019-05-01T02:27:21.114Z,5.40
2019-05-01T02:29:56.843Z,6.80
2019-05-01T02:32:30.349Z,6.08
2019-05-01T02:35:02.857Z,6.20
2019-05-01T02:37:35.807Z,6.72
2019-05-01T02:40:52.857Z,7.30
2019-05-01T02:43:25.321Z,6.10
2019-05-01T02:45:58.880Z,6.03
2019-05-01T02:48:32.987Z,7.12
2019-05-01T02:51:05.842Z,6.10
2019-05-01T02:53:39.872Z,5.47
2019-05-01T02:56:35.692Z,6.45
2019-05-01T02:59:08.801Z,6.30
2019-05-01T03:01:47.320Z,5.90
2019-05-01T03:04:14.807Z,6.05
2019-05-01T03:06:46.845Z,6.58
2019-05-01T03:09:19.803Z,5.95
2019-05-01T03:11:52.046Z,6.25
2019-05-01T03:14:24.494Z,6.10
2019-05-01T03:16:57.528Z,5.92
2019-05-01T03:19:55.096Z,6.70
2019-05-01T03:22:38.770Z,5.40
2019-05-01T03:25:10.889Z,6.08
2019-05-01T03:27:43.367Z,6.60
2019-05-01T03:30:16.329Z,6.25
2019-05-01T03:32:48.875Z,6.22
2019-05-01T03:35:21.000Z,6.08
2019-05-01T03:37:53.878Z,5.87
2019-05-01T03:40:25.994Z,5.95
2019-05-01T03:42:58.277Z,5.85
2019-05-01T03:45:34.144Z,6.08
2019-05-01T03:48:04.914Z,5.83
2019-05-01T03:50:37.288Z,5.58
2019-05-01T03:53:09.894Z,6.17
2019-05-01T03:55:41.919Z,6.28
2019-05-01T03:58:13.988Z,6.78
2019-05-01T04:00:56.881Z,5.80
2019-05-01T04:03:33.420Z,5.97
2019-05-01T04:06:05.795Z,6.05
2019-05-01T04:08:38.325Z,6.03
2019-05-01T04:11:10.807Z,6.12
2019-05-01T04:13:43.854Z,5.80
2019-05-01T04:16:16.832Z,5.62
2019-05-01T04:18:49.317Z,5.87
2019-05-01T04:21:23.531Z,5.33
2019-05-01T04:23:55.843Z,6.10
2019-05-01T04:26:28.406Z,6.53
2019-05-01T04:29:19.534Z,6.08
2019-05-01T04:32:05.332Z,6.95
2019-05-01T04:35:05.501Z,6.40
2019-05-01T04:37:37.995Z,5.90
2019-05-01T04:40:10.243Z,6.50
2019-05-01T04:42:42.802Z,6.08
2019-05-01T04:45:14.871Z,6.10
2019-05-01T04:47:46.899Z,6.35
2019-05-01T04:50:18.900Z,6.00
2019-05-01T04:52:51.790Z,6.97
2019-05-01T04:55:23.923Z,5.65
2019-05-01T04:57:56.328Z,5.60
2019-05-01T05:00:28.894Z,6.15
2019-05-01T05:03:08.509Z,6.80
2019-05-01T05:05:41.328Z,6.17
2019-05-01T05:08:13.558Z,6.50
2019-05-01T05:10:46.329Z,5.87
2019-05-01T05:13:23.619Z,7.15
2019-05-01T05:21:30.574Z,5.90
2019-05-01T05:24:02.320Z,6.37
2019-05-01T05:26:33.948Z,6.35
2019-05-01T05:29:06.443Z,6.03
2019-05-01T05:31:39.325Z,6.33
2019-05-01T05:34:11.902Z,6.53
2019-05-01T05:36:44.329Z,5.78
2019-05-01T05:39:28.713Z,6.83
2019-05-01T05:44:31.895Z,6.10
2019-05-01T05:47:04.351Z,5.90
2019-05-01T05:49:37.005Z,5.72
2019-05-01T05:52:33.512Z,5.95
2019-05-01T05:55:28.601Z,6.20
2019-05-01T05:58:06.416Z,6.17
2019-05-01T06:01:06.284Z,7.00
2019-05-01T06:03:57.904Z,5.78
2019-05-01T06:06:39.508Z,5.70
2019-05-01T06:09:14.244Z,6.22
2019-05-01T06:12:04.963Z,5.72
2019-05-01T06:14:56.315Z,6.45
2019-05-01T06:17:53.847Z,6.40
2019-05-01T06:20:41.783Z,5.80
2019-05-01T06:23:22.484Z,5.95
2019-05-01T06:26:00.009Z,5.90
2019-05-01T06:28:30.315Z,6.67
2019-05-01T06:31:22.980Z,5.70
2019-05-01T06:38:58.395Z,6.50
2019-05-01T06:41:40.810Z,6.37
2019-05-01T06:44:21.277Z,6.08
2019-05-01T06:47:11.689Z,6.47
2019-05-01T06:50:07.234Z,6.20
2019-05-01T06:52:40.837Z,5.53
2019-05-01T06:55:12.890Z,5.47
2019-05-01T06:57:45.677Z,5.83
2019-05-01T07:00:21.532Z,5.78
2019-05-01T07:02:54.417Z,6.10
2019-05-01T07:05:27.070Z,5.92
2019-05-01T07:07:59.842Z,6.03
2019-05-01T07:10:43.581Z,5.70
2019-05-01T07:13:06.604Z,5.65
2019-05-01T07:18:11.573Z,6.22
2019-05-01T07:23:33.884Z,6.85
2019-05-01T07:26:10.007Z,5.67
2019-05-01T07:28:43.714Z,5.25
2019-05-01T07:33:51.168Z,5.58
2019-05-01T07:36:22.921Z,5.90
2019-05-01T07:38:55.451Z,6.45
2019-05-01T07:41:27.869Z,5.55
2019-05-01T07:44:30.054Z,6.22
2019-05-01T07:47:18.891Z,7.03
2019-05-01T07:50:04.695Z,5.62
2019-05-01T07:55:13.035Z,5.60
2019-05-01T07:57:44.448Z,8.18
2019-05-01T08:00:26.272Z,6.78
2019-05-01T08:02:58.394Z,5.17
2019-05-01T08:05:30.872Z,5.80
2019-05-01T08:08:07.419Z,5.97
2019-05-01T08:10:36.789Z,6.62
2019-05-01T08:13:08.711Z,5.80
2019-05-01T08:18:16.842Z,6.12
2019-05-01T08:20:54.585Z,5.67
2019-05-01T08:23:26.922Z,6.47
2019-05-01T08:26:03.987Z,6.20
2019-05-01T08:28:52.004Z,8.90
2019-05-01T08:31:37.829Z,5.90
2019-05-01T08:34:12.027Z,7.03
2019-05-01T08:36:47.323Z,10.43
2019-05-01T08:39:18.346Z,10.03
2019-05-01T08:41:50.837Z,8.80
2019-05-01T08:44:24.851Z,8.50
2019-05-01T08:47:14.678Z,14.50
2019-05-01T08:50:01.318Z,13.88
2019-05-01T08:52:33.878Z,12.75
2019-05-01T08:55:09.328Z,13.40
2019-05-01T08:57:40.811Z,15.55
2019-05-01T09:00:13.296Z,13.08
2019-05-01T09:02:45.302Z,10.28
2019-05-01T09:05:28.529Z,11.88
2019-05-01T09:07:55.428Z,12.65
2019-05-01T09:10:23.735Z,14.40
2019-05-01T09:15:26.374Z,13.22
2019-05-01T09:17:58.305Z,10.25
2019-05-01T09:20:32.294Z,13.78
2019-05-01T09:23:03.829Z,9.30
2019-05-01T09:25:41.702Z,10.98
2019-05-01T09:31:01.337Z,8.68
2019-05-01T09:33:32.048Z,9.13
2019-05-01T09:36:03.798Z,9.25
2019-05-01T09:38:35.766Z,9.05
2019-05-01T09:43:38.778Z,11.43
2019-05-01T09:51:28.419Z,11.75
2019-05-01T09:54:09.704Z,9.70
2019-05-01T09:56:39.366Z,8.60
2019-05-01T10:01:56.921Z,8.93
2019-05-01T10:04:30.218Z,8.70
2019-05-01T10:07:03.892Z,8.08
2019-05-01T10:09:36.430Z,10.45
2019-05-01T10:12:11.466Z,9.75
2019-05-01T10:19:45.862Z,8.63
2019-05-01T10:22:18.033Z,8.08
2019-05-01T10:24:50.331Z,10.38
2019-05-01T10:27:25.785Z,9.80
2019-05-01T10:32:59.609Z,8.23
2019-05-01T10:35:42.825Z,9.28
2019-05-01T10:38:11.926Z,8.83
2019-05-01T10:40:44.327Z,8.85
2019-05-01T10:43:16.811Z,10.48
2019-05-01T10:45:49.332Z,11.68
2019-05-01T10:51:05.314Z,8.63
2019-05-01T10:53:37.309Z,8.45
2019-05-01T10:56:09.310Z,8.30
2019-05-01T10:58:41.266Z,8.10
2019-05-01T11:01:19.414Z,8.25
2019-05-01T11:03:51.362Z,7.95
2019-05-01T11:06:23.371Z,7.67
2019-05-01T11:08:55.066Z,8.20
2019-05-01T11:11:26.779Z,8.88
2019-05-01T11:13:58.422Z,9.03
2019-05-01T11:16:30.061Z,11.25
2019-05-01T11:19:01.903Z,8.40
2019-05-01T11:21:34.026Z,8.55
2019-05-01T11:24:05.983Z,7.67
2019-05-01T11:26:37.774Z,7.90
2019-05-01T11:32:11.535Z,7.65
2019-05-01T11:34:53.417Z,9.43
2019-05-01T11:37:35.748Z,8.23
2019-05-01T11:40:12.363Z,7.92
2019-05-01T11:42:44.023Z,8.40
2019-05-01T11:45:15.774Z,8.53
2019-05-01T11:50:18.626Z,7.37
2019-05-01T11:52:50.737Z,9.05
2019-05-01T11:57:53.309Z,7.65
2019-05-01T12:00:24.883Z,7.33
2019-05-01T12:02:56.359Z,8.40
2019-05-01T12:05:28.323Z,7.55
2019-05-01T12:08:00.622Z,8.40
2019-05-01T12:10:32.739Z,7.40
2019-05-01T12:15:35.301Z,7.00
2019-05-01T12:18:06.911Z,9.50
2019-05-01T12:20:38.781Z,7.87
2019-05-01T12:25:41.361Z,7.17
2019-05-01T12:28:13.629Z,7.75
2019-05-01T12:30:45.667Z,7.42
2019-05-01T12:33:17.359Z,7.15
2019-05-01T12:35:50.761Z,7.42
2019-05-01T12:43:42.605Z,7.65
2019-05-01T12:46:33.349Z,7.55
2019-05-01T12:49:05.357Z,6.78
2019-05-01T12:51:38.289Z,7.05
2019-05-01T12:54:19.356Z,7.42
2019-05-01T12:56:54.863Z,7.33
2019-05-01T12:59:26.689Z,6.97
2019-05-01T13:04:29.300Z,6.97
2019-05-01T13:07:00.981Z,7.72
2019-05-01T13:09:32.717Z,6.85
2019-05-01T13:14:35.341Z,6.97
2019-05-01T13:17:07.058Z,7.15
2019-05-01T13:19:38.741Z,7.15
2019-05-01T13:24:51.055Z,7.12
2019-05-01T13:27:28.642Z,6.78
2019-05-01T13:30:16.798Z,7.10
2019-05-01T13:32:50.845Z,7.25
2019-05-01T13:35:22.577Z,7.00
2019-05-01T13:37:54.369Z,7.50
2019-05-01T13:40:26.058Z,7.15
2019-05-01T13:42:57.769Z,7.40
2019-05-01T13:48:00.480Z,8.60
2019-05-01T13:50:32.036Z,7.40
2019-05-01T13:53:03.802Z,8.35
2019-05-01T13:55:35.779Z,7.90
2019-05-01T13:58:07.781Z,7.85
2019-05-01T14:03:10.260Z,7.90
2019-05-01T14:05:41.831Z,7.03
2019-05-01T14:08:13.597Z,7.00
2019-05-01T14:10:45.302Z,7.42
2019-05-01T14:13:17.298Z,6.97
2019-05-01T14:15:49.033Z,6.65
2019-05-01T14:18:20.765Z,7.60
2019-05-01T14:21:10.002Z,6.97
2019-05-01T14:23:59.369Z,7.37
2019-05-01T14:26:32.311Z,8.03
2019-05-01T14:29:04.032Z,8.43
2019-05-01T14:31:35.736Z,7.30
2019-05-01T14:36:38.345Z,7.25
2019-05-01T14:39:10.851Z,7.12
2019-05-01T14:41:42.865Z,7.72
2019-05-01T14:44:14.798Z,7.42
2019-05-01T14:46:47.347Z,7.83
2019-05-01T14:49:19.871Z,7.35
2019-05-01T14:51:52.316Z,7.37
2019-05-01T14:54:25.089Z,7.03
2019-05-01T14:56:57.862Z,7.20
2019-05-01T14:59:29.882Z,7.60
2019-05-01T15:02:01.838Z,6.72
2019-05-01T15:04:33.831Z,8.33
2019-05-01T15:07:05.823Z,7.72
2019-05-01T15:09:37.867Z,7.97
2019-05-01T15:12:10.539Z,7.80
2019-05-01T15:14:59.091Z,7.83
2019-05-01T15:17:43.844Z,7.45
2019-05-01T15:20:16.065Z,8.03
2019-05-01T15:22:48.453Z,9.85
2019-05-01T15:25:20.846Z,8.53
2019-05-01T15:27:52.846Z,9.00
2019-05-01T15:30:25.016Z,8.43
2019-05-01T15:32:57.039Z,8.20
2019-05-01T15:35:29.275Z,8.50
2019-05-01T15:38:01.852Z,9.95
2019-05-01T15:40:58.548Z,8.23
2019-05-01T15:43:35.813Z,11.12
2019-05-01T15:46:08.104Z,9.13
2019-05-01T15:48:40.440Z,8.28
2019-05-01T15:51:13.321Z,7.85
2019-05-01T15:53:45.821Z,8.10
2019-05-01T15:56:17.850Z,9.38
2019-05-01T15:58:49.865Z,8.08
2019-05-01T16:01:21.878Z,8.65
2019-05-01T16:03:53.857Z,7.72
2019-05-01T16:06:25.963Z,8.40
2019-05-01T16:08:58.535Z,7.80
2019-05-01T16:11:49.315Z,8.63
2019-05-01T16:14:21.840Z,7.92
2019-05-01T16:16:54.002Z,7.97
2019-05-01T16:19:26.089Z,8.78
2019-05-01T16:21:58.847Z,8.35
2019-05-01T16:24:30.835Z,8.75
2019-05-01T16:27:03.837Z,7.90
2019-05-01T16:29:35.873Z,8.30
2019-05-01T16:32:07.915Z,8.60
2019-05-01T16:34:40.442Z,8.20
2019-05-01T16:37:13.328Z,8.40
2019-05-01T16:40:01.078Z,8.38
2019-05-01T16:42:43.449Z,8.80
2019-05-01T16:45:15.914Z,9.75
2019-05-01T16:47:48.330Z,9.68
2019-05-01T16:50:20.792Z,10.30
2019-05-01T16:52:53.732Z,11.18
2019-05-01T16:55:25.869Z,9.05
2019-05-01T16:57:57.849Z,10.50
2019-05-01T17:01:00.423Z,9.43
2019-05-01T17:03:50.462Z,11.53
2019-05-01T17:06:41.015Z,12.07
2019-05-01T17:09:31.325Z,8.73
2019-05-01T17:12:03.845Z,10.75
2019-05-01T17:14:35.878Z,10.40
2019-05-01T17:17:11.367Z,9.15
2019-05-01T17:19:44.346Z,10.72
2019-05-01T17:22:17.323Z,8.35
2019-05-01T17:24:49.867Z,11.30
2019-05-01T17:27:22.100Z,8.93
2019-05-01T17:29:54.798Z,11.18
2019-05-01T17:32:27.057Z,9.75
2019-05-01T17:35:01.816Z,10.35
2019-05-01T17:37:33.363Z,9.83
2019-05-01T17:40:06.134Z,10.28
2019-05-01T17:42:39.328Z,15.32
2019-05-01T17:45:11.818Z,10.38
2019-05-01T17:47:43.920Z,9.85
2019-05-01T17:50:16.538Z,8.75
2019-05-01T17:55:21.824Z,11.80
2019-05-01T17:57:54.332Z,8.73
2019-05-01T18:00:44.332Z,9.13
2019-05-01T18:03:47.699Z,8.90
2019-05-01T18:06:23.443Z,8.90
2019-05-01T18:09:02.894Z,8.93
2019-05-01T18:11:30.506Z,9.65
2019-05-01T18:14:05.565Z,8.88
2019-05-01T18:16:36.857Z,8.65
2019-05-01T18:19:10.724Z,8.75
2019-05-01T18:21:46.657Z,8.33
2019-05-01T18:24:39.022Z,10.08
2019-05-01T18:27:32.520Z,9.78
2019-05-01T18:30:08.417Z,8.03
2019-05-01T18:32:47.520Z,9.05
2019-05-01T18:35:19.107Z,8.38
2019-05-01T18:38:00.565Z,8.33
2019-05-01T18:40:37.325Z,9.70
2019-05-01T18:43:10.110Z,7.92
2019-05-01T18:45:58.415Z,7.60
2019-05-01T18:48:30.864Z,8.25
2019-05-01T18:51:03.334Z,8.43
2019-05-01T18:53:35.885Z,8.35
2019-05-01T18:56:07.923Z,8.63
2019-05-01T18:58:39.861Z,8.23
2019-05-01T19:01:12.326Z,7.70
2019-05-01T19:03:45.833Z,7.17
2019-05-01T19:06:19.327Z,7.95
2019-05-01T19:08:51.877Z,7.70
2019-05-01T19:11:24.430Z,8.35
2019-05-01T19:13:57.027Z,8.63
2019-05-01T19:16:29.452Z,8.65
2019-05-01T19:19:03.961Z,10.85
2019-05-01T19:21:36.390Z,8.13
2019-05-01T19:24:08.871Z,7.92
2019-05-01T19:26:42.604Z,8.70
2019-05-01T19:29:14.887Z,8.10
2019-05-01T19:31:46.894Z,7.60
2019-05-01T19:34:18.917Z,9.98
2019-05-01T19:36:51.623Z,7.72
2019-05-01T19:39:23.789Z,7.83
2019-05-01T19:41:56.029Z,8.83
2019-05-01T19:44:28.412Z,8.75
2019-05-01T19:47:00.928Z,7.87
2019-05-01T19:52:14.862Z,7.10
2019-05-01T19:54:46.868Z,7.42
2019-05-01T19:57:19.283Z,7.53
2019-05-01T19:59:51.926Z,7.67
2019-05-01T20:02:24.167Z,8.58
2019-05-01T20:04:56.883Z,8.43
2019-05-01T20:07:28.912Z,8.03
2019-05-01T20:10:00.906Z,7.05
2019-05-01T20:12:33.333Z,7.10
2019-05-01T20:15:06.333Z,7.37
2019-05-01T20:17:38.858Z,7.85
2019-05-01T20:20:11.058Z,8.23
2019-05-01T20:22:42.930Z,7.25
2019-05-01T20:25:19.380Z,7.90
2019-05-01T20:30:22.353Z,8.08
2019-05-01T20:32:58.141Z,7.50
2019-05-01T20:35:30.236Z,7.85
2019-05-01T20:52:18.581Z,7.50
2019-05-01T20:54:50.891Z,7.85
2019-05-01T20:57:29.010Z,8.30
2019-05-01T21:00:01.355Z,7.30
2019-05-01T21:02:33.866Z,6.87
2019-05-01T21:05:23.748Z,7.12
2019-05-01T21:10:49.982Z,7.50
2019-05-01T21:13:11.837Z,7.60
2019-05-01T21:15:47.113Z,8.88
2019-05-01T21:18:20.820Z,7.50
2019-05-01T21:20:54.052Z,9.15
2019-05-01T21:23:26.289Z,6.50
2019-05-01T21:25:58.595Z,6.75
2019-05-01T21:28:30.873Z,7.50
2019-05-01T21:31:03.856Z,7.85
2019-05-01T21:33:40.785Z,7.20
2019-05-01T21:36:10.524Z,7.10
2019-05-01T21:38:42.895Z,7.25
2019-05-01T21:41:15.060Z,7.85
2019-05-01T21:43:48.906Z,7.35
2019-05-01T21:46:22.739Z,8.10
2019-05-01T21:48:55.296Z,7.47
2019-05-01T21:51:27.838Z,7.85
2019-05-01T21:53:59.878Z,7.17
2019-05-01T21:56:32.585Z,7.50
2019-05-01T21:59:08.427Z,8.00
2019-05-01T22:11:52.819Z,7.10
2019-05-01T22:14:42.704Z,7.62
2019-05-01T22:19:53.044Z,6.80
2019-05-01T22:22:38.690Z,7.47
2019-05-01T22:25:18.054Z,8.05
2019-05-01T22:27:55.363Z,7.55
2019-05-01T22:30:42.391Z,7.62
2019-05-01T22:33:15.848Z,6.75
2019-05-01T22:35:50.773Z,7.10
2019-05-01T22:41:06.705Z,7.95
2019-05-01T22:43:38.097Z,7.08
2019-05-01T22:46:15.713Z,6.92
2019-05-01T22:51:24.455Z,6.42
2019-05-01T22:53:59.888Z,7.20
2019-05-01T22:56:32.348Z,7.22
2019-05-01T22:59:04.848Z,7.03
2019-05-01T23:01:36.895Z,7.20
2019-05-01T23:04:12.157Z,7.37
2019-05-01T23:06:43.858Z,6.80
2019-05-01T23:09:17.616Z,7.10
2019-05-01T23:11:49.906Z,8.53
2019-05-01T23:14:23.337Z,7.47
2019-05-01T23:17:20.687Z,6.90
2019-05-01T23:19:52.899Z,7.30
2019-05-01T23:22:24.880Z,7.90
2019-05-01T23:24:56.855Z,7.17
2019-05-01T23:27:29.679Z,8.08
2019-05-01T23:35:06.084Z,7.17
2019-05-01T23:37:38.360Z,7.50
2019-05-01T23:40:15.401Z,7.35
2019-05-01T23:42:52.454Z,6.87
2019-05-01T23:45:19.407Z,7.15
2019-05-01T23:47:51.899Z,7.60
2019-05-01T23:50:23.806Z,7.17
2019-05-01T23:52:56.443Z,7.33
2019-05-01T23:55:28.825Z,7.35
2019-05-01T23:58:00.867Z,6.92
